Hav Tind — OZ2071 — position and weather

sailwx.info

Track history (hours):
 
Tides and Currents Weather Stations Pressure Air Temp Water Temp Dewpoint Dewpoint Depression Visibility Wind Speed Wind Dir Waves Ship Positions

Hav Tind

Last reported at 2014-Dec-20 01:30 UTC. Time now 2014-Dec-20 01:36 UTC.
Position N 62°14' W 006°48'.

Length 60 m; draft 4 m.

Type: Cargo ship. MMSI: 231565000.

Date/timePositionNaut miles runAvg speedWind from/ knotsBaromVisibWave heightAir tempDewpointWater temp
2014-Dec-20 01:30N 62°14' W 006°48'0 0.0
2014-Dec-20 00:27N 62°14' W 006°48'0 0.0
2014-Dec-19 23:33N 62°14' W 006°48'0 0.0
2014-Dec-19 22:27N 62°14' W 006°48'0 0.0
2014-Dec-19 21:33N 62°14' W 006°48'0 0.0
2014-Dec-19 20:30N 62°14' W 006°48'1 0.7
2014-Dec-19 19:26N 62°13' W 006°48'3 2.8
2014-Dec-19 18:33N 62°13' W 006°43'7 7.4
2014-Dec-19 17:33N 62°10' W 006°28'2 0.4
2014-Dec-19 11:33N 62°10' W 006°32'5 4.9
2014-Dec-19 10:33N 62°10' W 006°43'0 0.1
2014-Dec-19 09:34N 62°10' W 006°43'4 4.4
2014-Dec-19 08:33N 62°14' W 006°48'0 0.2
2014-Dec-19 07:31N 62°14' W 006°48'0 0.0
2014-Dec-19 06:25N 62°14' W 006°48'0 0.0
2014-Dec-19 05:28N 62°14' W 006°48'0 0.0
2014-Dec-19 04:28N 62°14' W 006°48'0 0.0
2014-Dec-19 03:19N 62°14' W 006°48'0 0.0
2014-Dec-19 02:25N 62°14' W 006°48'0 0.0
2014-Dec-19 01:25N 62°14' W 006°48'0 0.0
2014-Dec-19 00:31N 62°14' W 006°48'0 0.0
2014-Dec-18 23:22N 62°14' W 006°48'0 0.0
2014-Dec-18 22:28N 62°14' W 006°48'0 0.0
2014-Dec-18 21:28N 62°14' W 006°48'0 0.0
2014-Dec-18 20:28N 62°14' W 006°48'0 0.0
2014-Dec-18 19:25N 62°14' W 006°48'0 0.0
2014-Dec-18 18:28N 62°14' W 006°48'0 0.0
2014-Dec-18 17:28N 62°14' W 006°48'0 0.0
2014-Dec-18 16:25N 62°14' W 006°48'0 0.0
2014-Dec-18 15:28N 62°14' W 006°48'0 0.0
2014-Dec-18 14:31N 62°14' W 006°48'0 0.0
2014-Dec-18 13:31N 62°14' W 006°48'0 0.0
2014-Dec-18 12:28N 62°14' W 006°48'0 0.0
2014-Dec-18 11:31N 62°14' W 006°48'0 0.0
2014-Dec-18 10:31N 62°14' W 006°48'0 0.0
2014-Dec-18 09:28N 62°14' W 006°48'0 0.0
2014-Dec-18 08:31N 62°14' W 006°48'0 0.0
2014-Dec-18 07:31N 62°14' W 006°48'0 0.0
2014-Dec-18 06:31N 62°14' W 006°48'0 0.0
2014-Dec-18 05:31N 62°14' W 006°48'0 0.0
2014-Dec-18 04:28N 62°14' W 006°48'0 0.0
2014-Dec-18 03:10N 62°14' W 006°48'0 0.0
2014-Dec-18 02:19N 62°14' W 006°48'0 0.0
2014-Dec-18 01:28N 62°14' W 006°48'0 0.0
2014-Dec-18 00:22N 62°14' W 006°48'0 0.0
2014-Dec-17 23:31N 62°14' W 006°48'0 0.0
2014-Dec-17 22:28N 62°14' W 006°48'0 0.0
2014-Dec-17 21:25N 62°14' W 006°48'0 0.0
2014-Dec-17 20:28N 62°14' W 006°48'0 0.0
2014-Dec-17 19:28N 62°14' W 006°48'0 0.0
2014-Dec-17 18:31N 62°14' W 006°48'0 0.0
2014-Dec-17 17:25N 62°14' W 006°48'0 0.0
2014-Dec-17 16:31N 62°14' W 006°48'1 0.8
2014-Dec-17 15:32N 62°13' W 006°48'3 3.1
2014-Dec-17 14:33N 62°16' W 006°47'1 0.3
2014-Dec-17 10:29N 62°16' W 006°46'2 1.7
2014-Dec-17 09:29N 62°14' W 006°48'0 0.0
2014-Dec-17 08:20N 62°14' W 006°48'0 0.0
2014-Dec-17 07:14N 62°14' W 006°48'0 0.0
2014-Dec-17 06:32N 62°14' W 006°48'0 0.0
2014-Dec-17 05:26N 62°14' W 006°48'0 0.0
2014-Dec-17 04:20N 62°14' W 006°48'0 0.0
2014-Dec-17 03:29N 62°14' W 006°48'0 0.0
2014-Dec-17 02:32N 62°14' W 006°48'0 0.0
2014-Dec-17 01:23N 62°14' W 006°48'0 0.0
2014-Dec-17 00:32N 62°14' W 006°48'0 0.0
2014-Dec-16 23:32N 62°14' W 006°48'0 0.0
2014-Dec-16 22:32N 62°14' W 006°48'0 0.0
2014-Dec-16 21:32N 62°14' W 006°48'0 0.0
2014-Dec-16 20:29N 62°14' W 006°48'0 0.0
2014-Dec-16 19:29N 62°14' W 006°48'0 0.0
2014-Dec-16 18:20N 62°14' W 006°48'0 0.0
2014-Dec-16 17:29N 62°14' W 006°48'0 0.0
2014-Dec-16 16:20N 62°14' W 006°48'1 1.2
2014-Dec-16 15:33N 62°14' W 006°46'8 8.0
2014-Dec-16 14:34N 62°10' W 006°31'0 0.0
2014-Dec-16 09:34N 62°10' W 006°32'9 8.5
2014-Dec-16 08:33N 62°14' W 006°48'0 0.2
2014-Dec-16 07:28N 62°14' W 006°48'0 0.0
2014-Dec-16 06:28N 62°14' W 006°48'0 0.0
2014-Dec-16 05:28N 62°14' W 006°48'0 0.0
2014-Dec-16 03:32N 62°14' W 006°48'0 0.0
2014-Dec-16 01:08N 62°14' W 006°48'0 0.0
2014-Dec-15 23:19N 62°14' W 006°48'0 0.0
2014-Dec-15 22:32N 62°14' W 006°48'0 0.0
2014-Dec-15 21:31N 62°14' W 006°48'0 0.0
2014-Dec-15 20:31N 62°14' W 006°48'0 0.0
2014-Dec-15 19:26N 62°14' W 006°48'0 0.0
2014-Dec-15 18:28N 62°14' W 006°48'1 0.9
2014-Dec-15 17:33N 62°14' W 006°46'6 5.8
2014-Dec-15 16:33N 62°10' W 006°37'7 7.0
2014-Dec-15 15:33N 62°03' W 006°42'1 0.3
2014-Dec-15 13:33N 62°03' W 006°41'8 7.8
2014-Dec-15 12:32N 62°11' W 006°37'6 5.3
2014-Dec-15 11:26N 62°14' W 006°48'0 0.0
2014-Dec-15 10:32N 62°14' W 006°48'0 0.0
2014-Dec-15 09:32N 62°14' W 006°48'0 0.0
2014-Dec-15 08:32N 62°14' W 006°48'0 0.0
2014-Dec-15 07:20N 62°14' W 006°48'0 0.0
2014-Dec-15 06:29N 62°14' W 006°48'0 0.0
2014-Dec-15 05:32N 62°14' W 006°48'0 0.0
2014-Dec-15 04:29N 62°14' W 006°48'0 0.0
2014-Dec-15 03:32N 62°14' W 006°48'0 0.0
2014-Dec-15 02:32N 62°14' W 006°48'0 0.0
2014-Dec-15 01:29N 62°14' W 006°48'0 0.0
2014-Dec-15 00:26N 62°14' W 006°48'0 0.0
2014-Dec-14 23:29N 62°14' W 006°48'0 0.0
2014-Dec-14 22:29N 62°14' W 006°48'0 0.0
2014-Dec-14 21:23N 62°14' W 006°48'0 0.0
2014-Dec-14 20:32N 62°14' W 006°48'0 0.0
2014-Dec-14 19:32N 62°14' W 006°48'0 0.0
2014-Dec-14 18:08N 62°14' W 006°48'0 0.0
2014-Dec-14 17:32N 62°14' W 006°48'0 0.0
2014-Dec-14 16:17N 62°14' W 006°48'0 0.0
2014-Dec-14 15:20N 62°14' W 006°48'0 0.0
2014-Dec-14 14:23N 62°14' W 006°48'0 0.0
2014-Dec-14 13:29N 62°14' W 006°48'0 0.0
2014-Dec-14 12:29N 62°14' W 006°48'0 0.0
2014-Dec-14 11:32N 62°14' W 006°48'0 0.0
2014-Dec-14 10:26N 62°14' W 006°48'0 0.0
2014-Dec-14 09:32N 62°14' W 006°48'0 0.0
2014-Dec-14 08:29N 62°14' W 006°48'0 0.0
2014-Dec-14 07:32N 62°14' W 006°48'0 0.0
2014-Dec-14 06:32N 62°14' W 006°48'0 0.0
2014-Dec-14 05:29N 62°14' W 006°48'0 0.0
2014-Dec-14 04:29N 62°14' W 006°48'0 0.0
2014-Dec-14 03:20N 62°14' W 006°48'0 0.0
2014-Dec-14 02:23N 62°14' W 006°48'0 0.0
2014-Dec-14 01:32N 62°14' W 006°48'0 0.0
2014-Dec-14 00:29N 62°14' W 006°48'0 0.0
2014-Dec-13 23:29N 62°14' W 006°48'0 0.0
2014-Dec-13 22:32N 62°14' W 006°48'0 0.0
2014-Dec-13 21:29N 62°14' W 006°48'0 0.0
2014-Dec-13 20:32N 62°14' W 006°48'0 0.0
2014-Dec-13 19:32N 62°14' W 006°48'0 0.0
2014-Dec-13 18:23N 62°14' W 006°48'0 0.0
2014-Dec-13 17:32N 62°14' W 006°48'0 0.0
2014-Dec-13 16:14N 62°14' W 006°48'0 0.0
2014-Dec-13 15:32N 62°14' W 006°48'6 6.1
2014-Dec-13 14:33N 62°12' W 006°36'5 0.7
2014-Dec-13 07:16N 62°11' W 006°26'5 7.0
2014-Dec-13 06:30N 62°12' W 006°37'5 5.4
2014-Dec-13 05:31N 62°14' W 006°48'0 0.0
2014-Dec-13 04:28N 62°14' W 006°48'0 0.0
2014-Dec-13 03:31N 62°14' W 006°48'0 0.0
2014-Dec-13 02:31N 62°14' W 006°48'0 0.0
2014-Dec-13 01:31N 62°14' W 006°48'0 0.0
2014-Dec-13 00:10N 62°14' W 006°48'0 0.0
2014-Dec-12 23:28N 62°14' W 006°48'0 0.0
2014-Dec-12 22:22N 62°14' W 006°48'0 0.0
2014-Dec-12 21:28N 62°14' W 006°48'0 0.0
2014-Dec-12 20:28N 62°14' W 006°48'0 0.0
2014-Dec-12 19:28N 62°14' W 006°48'0 0.0
2014-Dec-12 18:31N 62°14' W 006°48'0 0.0
2014-Dec-12 17:31N 62°14' W 006°48'0 0.0
2014-Dec-12 16:28N 62°14' W 006°48'0 0.0
2014-Dec-12 15:22N 62°14' W 006°48'0 0.0
2014-Dec-12 14:31N 62°14' W 006°48'0 0.0
2014-Dec-12 13:31N 62°14' W 006°48'0 0.0
2014-Dec-12 12:31N 62°14' W 006°48'0 0.0
2014-Dec-12 11:31N 62°14' W 006°48'0 0.0
2014-Dec-12 10:28N 62°14' W 006°48'0 0.0
2014-Dec-12 09:31N 62°14' W 006°48'0 0.0
2014-Dec-12 08:28N 62°14' W 006°48'0 0.0
2014-Dec-12 07:31N 62°14' W 006°48'0 0.0
2014-Dec-12 06:31N 62°14' W 006°48'0 0.0
2014-Dec-12 05:31N 62°14' W 006°48'0 0.0
2014-Dec-12 04:31N 62°14' W 006°48'0 0.0
2014-Dec-12 03:28N 62°14' W 006°48'0 0.0
2014-Dec-12 02:31N 62°14' W 006°48'0 0.0
2014-Dec-12 01:31N 62°14' W 006°48'0 0.0
2014-Dec-12 00:28N 62°14' W 006°48'0 0.0
2014-Dec-11 23:31N 62°14' W 006°48'0 0.0
2014-Dec-11 22:25N 62°14' W 006°48'0 0.0
2014-Dec-11 21:31N 62°14' W 006°48'0 0.0
2014-Dec-11 20:31N 62°14' W 006°48'0 0.0
2014-Dec-11 19:31N 62°14' W 006°48'0 0.0
2014-Dec-11 18:31N 62°14' W 006°48'0 0.0
2014-Dec-11 17:28N 62°14' W 006°48'0 0.0
2014-Dec-11 16:31N 62°14' W 006°48'0 0.0
2014-Dec-11 15:16N 62°14' W 006°48'0 0.0
2014-Dec-11 14:25N 62°14' W 006°48'0 0.0
2014-Dec-11 13:22N 62°14' W 006°48'0 0.0
2014-Dec-11 12:25N 62°14' W 006°48'5 5.0
2014-Dec-11 11:26N 62°12' W 006°38'3 3.1
2014-Dec-11 10:33N 62°10' W 006°43'3 2.4
2014-Dec-11 09:25N 62°12' W 006°38'5 5.7
2014-Dec-11 08:31N 62°14' W 006°48'0 0.1
2014-Dec-11 07:22N 62°14' W 006°48'0 0.0
2014-Dec-11 06:31N 62°14' W 006°48'0 0.0
2014-Dec-11 05:28N 62°14' W 006°48'0 0.0
2014-Dec-11 04:31N 62°14' W 006°48'0 0.0
2014-Dec-11 03:19N 62°14' W 006°48'0 0.0
2014-Dec-11 02:25N 62°14' W 006°48'0 0.0
2014-Dec-11 01:28N 62°14' W 006°48'0 0.0
2014-Dec-11 00:19N 62°14' W 006°48'0 0.0
2014-Dec-10 23:22N 62°14' W 006°48'0 0.0
2014-Dec-10 22:28N 62°14' W 006°48'0 0.0
2014-Dec-10 21:31N 62°14' W 006°48'0 0.0
2014-Dec-10 20:28N 62°14' W 006°48'0 0.0
2014-Dec-10 19:31N 62°14' W 006°48'0 0.0
2014-Dec-10 18:31N 62°14' W 006°48'1 0.9
2014-Dec-10 17:33N 62°13' W 006°48'0 0.4
2014-Dec-10 16:33N 62°14' W 006°48'2 2.2
2014-Dec-10 15:34N 62°15' W 006°45'5 2.5
2014-Dec-10 13:24N 62°18' W 006°56'1 1.0
2014-Dec-10 12:07N 62°19' W 006°53'4 7.4
2014-Dec-10 11:33N 62°22' W 006°50'3 0.7
2014-Dec-10 07:29N 62°22' W 006°43'9 9.9
2014-Dec-10 06:33N 62°13' W 006°39'4 4.2
2014-Dec-10 05:32N 62°14' W 006°48'0 0.0
2014-Dec-10 04:29N 62°14' W 006°48'0 0.0
2014-Dec-10 03:29N 62°14' W 006°48'0 0.0
2014-Dec-10 02:29N 62°14' W 006°48'0 0.0
2014-Dec-10 01:32N 62°14' W 006°48'  
Track history (hours):
 
Tides and Currents Weather Stations Pressure Air Temp Water Temp Dewpoint Dewpoint Depression Visibility Wind Speed Wind Dir Waves Ship Positions

Hav Tind

Last reported at 2014-Dec-20 01:30 UTC. Time now 2014-Dec-20 01:36 UTC.
Position N 62°14' W 006°48'.

Length 60 m; draft 4 m.

Type: Cargo ship. MMSI: 231565000.

Date/timePositionNaut miles runAvg speedWind from/ knotsBaromVisibWave heightAir tempDewpointWater temp
2014-Dec-20 01:30N 62°14' W 006°48'0 0.0
2014-Dec-20 00:27N 62°14' W 006°48'0 0.0
2014-Dec-19 23:33N 62°14' W 006°48'0 0.0
2014-Dec-19 22:27N 62°14' W 006°48'0 0.0
2014-Dec-19 21:33N 62°14' W 006°48'0 0.0
2014-Dec-19 20:30N 62°14' W 006°48'1 0.7
2014-Dec-19 19:26N 62°13' W 006°48'3 2.8
2014-Dec-19 18:33N 62°13' W 006°43'7 7.4
2014-Dec-19 17:33N 62°10' W 006°28'2 0.4
2014-Dec-19 11:33N 62°10' W 006°32'5 4.9
2014-Dec-19 10:33N 62°10' W 006°43'0 0.1
2014-Dec-19 09:34N 62°10' W 006°43'4 4.4
2014-Dec-19 08:33N 62°14' W 006°48'0 0.2
2014-Dec-19 07:31N 62°14' W 006°48'0 0.0
2014-Dec-19 06:25N 62°14' W 006°48'0 0.0
2014-Dec-19 05:28N 62°14' W 006°48'0 0.0
2014-Dec-19 04:28N 62°14' W 006°48'0 0.0
2014-Dec-19 03:19N 62°14' W 006°48'0 0.0
2014-Dec-19 02:25N 62°14' W 006°48'0 0.0
2014-Dec-19 01:25N 62°14' W 006°48'0 0.0
2014-Dec-19 00:31N 62°14' W 006°48'0 0.0
2014-Dec-18 23:22N 62°14' W 006°48'0 0.0
2014-Dec-18 22:28N 62°14' W 006°48'0 0.0
2014-Dec-18 21:28N 62°14' W 006°48'0 0.0
2014-Dec-18 20:28N 62°14' W 006°48'0 0.0
2014-Dec-18 19:25N 62°14' W 006°48'0 0.0
2014-Dec-18 18:28N 62°14' W 006°48'0 0.0
2014-Dec-18 17:28N 62°14' W 006°48'0 0.0
2014-Dec-18 16:25N 62°14' W 006°48'0 0.0
2014-Dec-18 15:28N 62°14' W 006°48'0 0.0
2014-Dec-18 14:31N 62°14' W 006°48'0 0.0
2014-Dec-18 13:31N 62°14' W 006°48'0 0.0
2014-Dec-18 12:28N 62°14' W 006°48'0 0.0
2014-Dec-18 11:31N 62°14' W 006°48'0 0.0
2014-Dec-18 10:31N 62°14' W 006°48'0 0.0
2014-Dec-18 09:28N 62°14' W 006°48'0 0.0
2014-Dec-18 08:31N 62°14' W 006°48'0 0.0
2014-Dec-18 07:31N 62°14' W 006°48'0 0.0
2014-Dec-18 06:31N 62°14' W 006°48'0 0.0
2014-Dec-18 05:31N 62°14' W 006°48'0 0.0
2014-Dec-18 04:28N 62°14' W 006°48'0 0.0
2014-Dec-18 03:10N 62°14' W 006°48'0 0.0
2014-Dec-18 02:19N 62°14' W 006°48'0 0.0
2014-Dec-18 01:28N 62°14' W 006°48'0 0.0
2014-Dec-18 00:22N 62°14' W 006°48'0 0.0
2014-Dec-17 23:31N 62°14' W 006°48'0 0.0
2014-Dec-17 22:28N 62°14' W 006°48'0 0.0
2014-Dec-17 21:25N 62°14' W 006°48'0 0.0
2014-Dec-17 20:28N 62°14' W 006°48'0 0.0
2014-Dec-17 19:28N 62°14' W 006°48'0 0.0
2014-Dec-17 18:31N 62°14' W 006°48'0 0.0
2014-Dec-17 17:25N 62°14' W 006°48'0 0.0
2014-Dec-17 16:31N 62°14' W 006°48'1 0.8
2014-Dec-17 15:32N 62°13' W 006°48'3 3.1
2014-Dec-17 14:33N 62°16' W 006°47'1 0.3
2014-Dec-17 10:29N 62°16' W 006°46'2 1.7
2014-Dec-17 09:29N 62°14' W 006°48'0 0.0
2014-Dec-17 08:20N 62°14' W 006°48'0 0.0
2014-Dec-17 07:14N 62°14' W 006°48'0 0.0
2014-Dec-17 06:32N 62°14' W 006°48'0 0.0
2014-Dec-17 05:26N 62°14' W 006°48'0 0.0
2014-Dec-17 04:20N 62°14' W 006°48'0 0.0
2014-Dec-17 03:29N 62°14' W 006°48'0 0.0
2014-Dec-17 02:32N 62°14' W 006°48'0 0.0
2014-Dec-17 01:23N 62°14' W 006°48'0 0.0
2014-Dec-17 00:32N 62°14' W 006°48'0 0.0
2014-Dec-16 23:32N 62°14' W 006°48'0 0.0
2014-Dec-16 22:32N 62°14' W 006°48'0 0.0
2014-Dec-16 21:32N 62°14' W 006°48'0 0.0
2014-Dec-16 20:29N 62°14' W 006°48'0 0.0
2014-Dec-16 19:29N 62°14' W 006°48'0 0.0
2014-Dec-16 18:20N 62°14' W 006°48'0 0.0
2014-Dec-16 17:29N 62°14' W 006°48'0 0.0
2014-Dec-16 16:20N 62°14' W 006°48'1 1.2
2014-Dec-16 15:33N 62°14' W 006°46'8 8.0
2014-Dec-16 14:34N 62°10' W 006°31'0 0.0
2014-Dec-16 09:34N 62°10' W 006°32'9 8.5
2014-Dec-16 08:33N 62°14' W 006°48'0 0.2
2014-Dec-16 07:28N 62°14' W 006°48'0 0.0
2014-Dec-16 06:28N 62°14' W 006°48'0 0.0
2014-Dec-16 05:28N 62°14' W 006°48'0 0.0
2014-Dec-16 03:32N 62°14' W 006°48'0 0.0
2014-Dec-16 01:08N 62°14' W 006°48'0 0.0
2014-Dec-15 23:19N 62°14' W 006°48'0 0.0
2014-Dec-15 22:32N 62°14' W 006°48'0 0.0
2014-Dec-15 21:31N 62°14' W 006°48'0 0.0
2014-Dec-15 20:31N 62°14' W 006°48'0 0.0
2014-Dec-15 19:26N 62°14' W 006°48'0 0.0
2014-Dec-15 18:28N 62°14' W 006°48'1 0.9
2014-Dec-15 17:33N 62°14' W 006°46'6 5.8
2014-Dec-15 16:33N 62°10' W 006°37'7 7.0
2014-Dec-15 15:33N 62°03' W 006°42'1 0.3
2014-Dec-15 13:33N 62°03' W 006°41'8 7.8
2014-Dec-15 12:32N 62°11' W 006°37'6 5.3
2014-Dec-15 11:26N 62°14' W 006°48'0 0.0
2014-Dec-15 10:32N 62°14' W 006°48'0 0.0
2014-Dec-15 09:32N 62°14' W 006°48'0 0.0
2014-Dec-15 08:32N 62°14' W 006°48'0 0.0
2014-Dec-15 07:20N 62°14' W 006°48'0 0.0
2014-Dec-15 06:29N 62°14' W 006°48'0 0.0
2014-Dec-15 05:32N 62°14' W 006°48'0 0.0
2014-Dec-15 04:29N 62°14' W 006°48'0 0.0
2014-Dec-15 03:32N 62°14' W 006°48'0 0.0
2014-Dec-15 02:32N 62°14' W 006°48'0 0.0
2014-Dec-15 01:29N 62°14' W 006°48'0 0.0
2014-Dec-15 00:26N 62°14' W 006°48'0 0.0
2014-Dec-14 23:29N 62°14' W 006°48'0 0.0
2014-Dec-14 22:29N 62°14' W 006°48'0 0.0
2014-Dec-14 21:23N 62°14' W 006°48'0 0.0
2014-Dec-14 20:32N 62°14' W 006°48'0 0.0
2014-Dec-14 19:32N 62°14' W 006°48'0 0.0
2014-Dec-14 18:08N 62°14' W 006°48'0 0.0
2014-Dec-14 17:32N 62°14' W 006°48'0 0.0
2014-Dec-14 16:17N 62°14' W 006°48'0 0.0
2014-Dec-14 15:20N 62°14' W 006°48'0 0.0
2014-Dec-14 14:23N 62°14' W 006°48'0 0.0
2014-Dec-14 13:29N 62°14' W 006°48'0 0.0
2014-Dec-14 12:29N 62°14' W 006°48'0 0.0
2014-Dec-14 11:32N 62°14' W 006°48'0 0.0
2014-Dec-14 10:26N 62°14' W 006°48'0 0.0
2014-Dec-14 09:32N 62°14' W 006°48'0 0.0
2014-Dec-14 08:29N 62°14' W 006°48'0 0.0
2014-Dec-14 07:32N 62°14' W 006°48'0 0.0
2014-Dec-14 06:32N 62°14' W 006°48'0 0.0
2014-Dec-14 05:29N 62°14' W 006°48'0 0.0
2014-Dec-14 04:29N 62°14' W 006°48'0 0.0
2014-Dec-14 03:20N 62°14' W 006°48'0 0.0
2014-Dec-14 02:23N 62°14' W 006°48'0 0.0
2014-Dec-14 01:32N 62°14' W 006°48'0 0.0
2014-Dec-14 00:29N 62°14' W 006°48'0 0.0
2014-Dec-13 23:29N 62°14' W 006°48'0 0.0
2014-Dec-13 22:32N 62°14' W 006°48'0 0.0
2014-Dec-13 21:29N 62°14' W 006°48'0 0.0
2014-Dec-13 20:32N 62°14' W 006°48'0 0.0
2014-Dec-13 19:32N 62°14' W 006°48'0 0.0
2014-Dec-13 18:23N 62°14' W 006°48'0 0.0
2014-Dec-13 17:32N 62°14' W 006°48'0 0.0
2014-Dec-13 16:14N 62°14' W 006°48'0 0.0
2014-Dec-13 15:32N 62°14' W 006°48'6 6.1
2014-Dec-13 14:33N 62°12' W 006°36'5 0.7
2014-Dec-13 07:16N 62°11' W 006°26'5 7.0
2014-Dec-13 06:30N 62°12' W 006°37'5 5.4
2014-Dec-13 05:31N 62°14' W 006°48'0 0.0
2014-Dec-13 04:28N 62°14' W 006°48'0 0.0
2014-Dec-13 03:31N 62°14' W 006°48'0 0.0
2014-Dec-13 02:31N 62°14' W 006°48'0 0.0
2014-Dec-13 01:31N 62°14' W 006°48'0 0.0
2014-Dec-13 00:10N 62°14' W 006°48'0 0.0
2014-Dec-12 23:28N 62°14' W 006°48'0 0.0
2014-Dec-12 22:22N 62°14' W 006°48'0 0.0
2014-Dec-12 21:28N 62°14' W 006°48'0 0.0
2014-Dec-12 20:28N 62°14' W 006°48'0 0.0
2014-Dec-12 19:28N 62°14' W 006°48'0 0.0
2014-Dec-12 18:31N 62°14' W 006°48'0 0.0
2014-Dec-12 17:31N 62°14' W 006°48'0 0.0
2014-Dec-12 16:28N 62°14' W 006°48'0 0.0
2014-Dec-12 15:22N 62°14' W 006°48'0 0.0
2014-Dec-12 14:31N 62°14' W 006°48'0 0.0
2014-Dec-12 13:31N 62°14' W 006°48'0 0.0
2014-Dec-12 12:31N 62°14' W 006°48'0 0.0
2014-Dec-12 11:31N 62°14' W 006°48'0 0.0
2014-Dec-12 10:28N 62°14' W 006°48'0 0.0
2014-Dec-12 09:31N 62°14' W 006°48'0 0.0
2014-Dec-12 08:28N 62°14' W 006°48'0 0.0
2014-Dec-12 07:31N 62°14' W 006°48'0 0.0
2014-Dec-12 06:31N 62°14' W 006°48'0 0.0
2014-Dec-12 05:31N 62°14' W 006°48'0 0.0
2014-Dec-12 04:31N 62°14' W 006°48'0 0.0
2014-Dec-12 03:28N 62°14' W 006°48'0 0.0
2014-Dec-12 02:31N 62°14' W 006°48'0 0.0
2014-Dec-12 01:31N 62°14' W 006°48'0 0.0
2014-Dec-12 00:28N 62°14' W 006°48'0 0.0
2014-Dec-11 23:31N 62°14' W 006°48'0 0.0
2014-Dec-11 22:25N 62°14' W 006°48'0 0.0
2014-Dec-11 21:31N 62°14' W 006°48'0 0.0
2014-Dec-11 20:31N 62°14' W 006°48'0 0.0
2014-Dec-11 19:31N 62°14' W 006°48'0 0.0
2014-Dec-11 18:31N 62°14' W 006°48'0 0.0
2014-Dec-11 17:28N 62°14' W 006°48'0 0.0
2014-Dec-11 16:31N 62°14' W 006°48'0 0.0
2014-Dec-11 15:16N 62°14' W 006°48'0 0.0
2014-Dec-11 14:25N 62°14' W 006°48'0 0.0
2014-Dec-11 13:22N 62°14' W 006°48'0 0.0
2014-Dec-11 12:25N 62°14' W 006°48'5 5.0
2014-Dec-11 11:26N 62°12' W 006°38'3 3.1
2014-Dec-11 10:33N 62°10' W 006°43'3 2.4
2014-Dec-11 09:25N 62°12' W 006°38'5 5.7
2014-Dec-11 08:31N 62°14' W 006°48'0 0.1
2014-Dec-11 07:22N 62°14' W 006°48'0 0.0
2014-Dec-11 06:31N 62°14' W 006°48'0 0.0
2014-Dec-11 05:28N 62°14' W 006°48'0 0.0
2014-Dec-11 04:31N 62°14' W 006°48'0 0.0
2014-Dec-11 03:19N 62°14' W 006°48'0 0.0
2014-Dec-11 02:25N 62°14' W 006°48'0 0.0
2014-Dec-11 01:28N 62°14' W 006°48'0 0.0
2014-Dec-11 00:19N 62°14' W 006°48'0 0.0
2014-Dec-10 23:22N 62°14' W 006°48'0 0.0
2014-Dec-10 22:28N 62°14' W 006°48'0 0.0
2014-Dec-10 21:31N 62°14' W 006°48'0 0.0
2014-Dec-10 20:28N 62°14' W 006°48'0 0.0
2014-Dec-10 19:31N 62°14' W 006°48'0 0.0
2014-Dec-10 18:31N 62°14' W 006°48'1 0.9
2014-Dec-10 17:33N 62°13' W 006°48'0 0.4
2014-Dec-10 16:33N 62°14' W 006°48'2 2.2
2014-Dec-10 15:34N 62°15' W 006°45'5 2.5
2014-Dec-10 13:24N 62°18' W 006°56'1 1.0
2014-Dec-10 12:07N 62°19' W 006°53'4 7.4
2014-Dec-10 11:33N 62°22' W 006°50'3 0.7
2014-Dec-10 07:29N 62°22' W 006°43'9 9.9
2014-Dec-10 06:33N 62°13' W 006°39'4 4.2
2014-Dec-10 05:32N 62°14' W 006°48'0 0.0
2014-Dec-10 04:29N 62°14' W 006°48'0 0.0
2014-Dec-10 03:29N 62°14' W 006°48'0 0.0
2014-Dec-10 02:29N 62°14' W 006°48'0 0.0
2014-Dec-10 01:32N 62°14' W 006°48'  

Dump ship's entire track history